sensor_id;sensor_type;location;lat;lon;timestamp;P1;durP1;ratioP1;P2;durP2;ratioP2
74707;SDS011;63360;50.104;8.074;2023-06-14T00:02:17;9.23;;;4.50;;
74707;SDS011;63360;50.104;8.074;2023-06-14T00:04:44;5.10;;;3.65;;
74707;SDS011;63360;50.104;8.074;2023-06-14T00:07:11;6.00;;;3.93;;
74707;SDS011;63360;50.104;8.074;2023-06-14T00:09:40;7.22;;;4.15;;
74707;SDS011;63360;50.104;8.074;2023-06-14T00:12:07;9.30;;;4.28;;
74707;SDS011;63360;50.104;8.074;2023-06-14T00:14:34;7.00;;;3.83;;
74707;SDS011;63360;50.104;8.074;2023-06-14T00:17:01;5.78;;;4.18;;
74707;SDS011;63360;50.104;8.074;2023-06-14T00:19:29;5.87;;;3.80;;
74707;SDS011;63360;50.104;8.074;2023-06-14T00:21:56;5.43;;;3.88;;
74707;SDS011;63360;50.104;8.074;2023-06-14T00:24:23;6.93;;;3.95;;
74707;SDS011;63360;50.104;8.074;2023-06-14T00:26:50;7.07;;;4.15;;
74707;SDS011;63360;50.104;8.074;2023-06-14T00:29:16;6.15;;;4.22;;
74707;SDS011;63360;50.104;8.074;2023-06-14T00:31:43;7.10;;;4.60;;
74707;SDS011;63360;50.104;8.074;2023-06-14T00:34:09;7.22;;;4.30;;
74707;SDS011;63360;50.104;8.074;2023-06-14T00:36:36;6.40;;;3.92;;
74707;SDS011;63360;50.104;8.074;2023-06-14T00:39:02;7.38;;;4.45;;
74707;SDS011;63360;50.104;8.074;2023-06-14T00:41:29;7.88;;;4.20;;
74707;SDS011;63360;50.104;8.074;2023-06-14T00:43:56;7.20;;;3.73;;
74707;SDS011;63360;50.104;8.074;2023-06-14T00:46:23;7.75;;;3.75;;
74707;SDS011;63360;50.104;8.074;2023-06-14T00:48:49;6.78;;;4.10;;
74707;SDS011;63360;50.104;8.074;2023-06-14T00:51:16;9.05;;;3.90;;
74707;SDS011;63360;50.104;8.074;2023-06-14T00:53:43;7.28;;;4.07;;
74707;SDS011;63360;50.104;8.074;2023-06-14T00:56:13;5.73;;;3.83;;
74707;SDS011;63360;50.104;8.074;2023-06-14T00:58:41;6.15;;;3.85;;
74707;SDS011;63360;50.104;8.074;2023-06-14T01:01:08;5.95;;;4.22;;
74707;SDS011;63360;50.104;8.074;2023-06-14T01:03:34;6.07;;;3.95;;
74707;SDS011;63360;50.104;8.074;2023-06-14T01:14:37;7.13;;;4.18;;
74707;SDS011;63360;50.104;8.074;2023-06-14T01:17:05;8.00;;;4.38;;
74707;SDS011;63360;50.104;8.074;2023-06-14T01:19:42;7.03;;;4.18;;
74707;SDS011;63360;50.104;8.074;2023-06-14T01:22:10;7.33;;;4.27;;
74707;SDS011;63360;50.104;8.074;2023-06-14T01:24:37;6.78;;;4.15;;
74707;SDS011;63360;50.104;8.074;2023-06-14T01:27:05;7.72;;;4.10;;
74707;SDS011;63360;50.104;8.074;2023-06-14T01:29:33;6.63;;;4.00;;
74707;SDS011;63360;50.104;8.074;2023-06-14T01:32:02;7.28;;;4.05;;
74707;SDS011;63360;50.104;8.074;2023-06-14T01:34:29;6.13;;;3.97;;
74707;SDS011;63360;50.104;8.074;2023-06-14T01:36:56;6.22;;;4.20;;
74707;SDS011;63360;50.104;8.074;2023-06-14T01:39:23;7.13;;;4.40;;
74707;SDS011;63360;50.104;8.074;2023-06-14T01:41:50;6.40;;;4.10;;
74707;SDS011;63360;50.104;8.074;2023-06-14T01:44:18;6.38;;;4.30;;
74707;SDS011;63360;50.104;8.074;2023-06-14T01:46:46;7.30;;;4.30;;
74707;SDS011;63360;50.104;8.074;2023-06-14T01:49:13;9.43;;;4.03;;
74707;SDS011;63360;50.104;8.074;2023-06-14T01:51:40;6.60;;;3.90;;
74707;SDS011;63360;50.104;8.074;2023-06-14T01:54:06;7.78;;;4.68;;
74707;SDS011;63360;50.104;8.074;2023-06-14T01:56:33;7.72;;;4.18;;
74707;SDS011;63360;50.104;8.074;2023-06-14T01:58:59;6.40;;;3.97;;
74707;SDS011;63360;50.104;8.074;2023-06-14T02:01:26;7.28;;;4.65;;
74707;SDS011;63360;50.104;8.074;2023-06-14T02:03:53;7.07;;;3.92;;
74707;SDS011;63360;50.104;8.074;2023-06-14T02:06:19;6.18;;;3.90;;
74707;SDS011;63360;50.104;8.074;2023-06-14T02:08:46;6.78;;;3.72;;
74707;SDS011;63360;50.104;8.074;2023-06-14T02:11:12;7.30;;;4.30;;
74707;SDS011;63360;50.104;8.074;2023-06-14T02:13:39;7.70;;;4.22;;
74707;SDS011;63360;50.104;8.074;2023-06-14T02:16:05;6.40;;;4.07;;
74707;SDS011;63360;50.104;8.074;2023-06-14T02:18:32;7.20;;;3.60;;
74707;SDS011;63360;50.104;8.074;2023-06-14T02:20:58;5.90;;;3.90;;
74707;SDS011;63360;50.104;8.074;2023-06-14T02:23:25;6.93;;;3.87;;
74707;SDS011;63360;50.104;8.074;2023-06-14T02:25:51;7.13;;;4.00;;
74707;SDS011;63360;50.104;8.074;2023-06-14T02:28:18;8.98;;;4.20;;
74707;SDS011;63360;50.104;8.074;2023-06-14T02:30:44;6.70;;;3.97;;
74707;SDS011;63360;50.104;8.074;2023-06-14T02:33:11;7.63;;;4.45;;
74707;SDS011;63360;50.104;8.074;2023-06-14T02:35:39;6.53;;;4.20;;
74707;SDS011;63360;50.104;8.074;2023-06-14T02:38:06;8.20;;;4.40;;
74707;SDS011;63360;50.104;8.074;2023-06-14T02:40:33;6.72;;;4.35;;
74707;SDS011;63360;50.104;8.074;2023-06-14T02:42:59;7.07;;;4.25;;
74707;SDS011;63360;50.104;8.074;2023-06-14T02:45:26;8.10;;;4.50;;
74707;SDS011;63360;50.104;8.074;2023-06-14T02:47:52;7.30;;;4.50;;
74707;SDS011;63360;50.104;8.074;2023-06-14T02:50:22;8.35;;;4.50;;
74707;SDS011;63360;50.104;8.074;2023-06-14T02:52:54;6.85;;;4.20;;
74707;SDS011;63360;50.104;8.074;2023-06-14T02:55:23;8.55;;;4.60;;
74707;SDS011;63360;50.104;8.074;2023-06-14T02:57:49;7.70;;;4.60;;
74707;SDS011;63360;50.104;8.074;2023-06-14T03:00:16;7.30;;;4.43;;
74707;SDS011;63360;50.104;8.074;2023-06-14T03:02:43;8.10;;;4.50;;
74707;SDS011;63360;50.104;8.074;2023-06-14T03:05:10;6.63;;;4.47;;
74707;SDS011;63360;50.104;8.074;2023-06-14T03:07:37;9.77;;;4.65;;
74707;SDS011;63360;50.104;8.074;2023-06-14T03:10:08;15.48;;;5.80;;
74707;SDS011;63360;50.104;8.074;2023-06-14T03:12:35;10.40;;;4.90;;
74707;SDS011;63360;50.104;8.074;2023-06-14T03:15:02;7.75;;;4.15;;
74707;SDS011;63360;50.104;8.074;2023-06-14T03:17:29;7.38;;;4.47;;
74707;SDS011;63360;50.104;8.074;2023-06-14T03:19:59;7.60;;;4.65;;
74707;SDS011;63360;50.104;8.074;2023-06-14T03:22:26;5.80;;;4.00;;
74707;SDS011;63360;50.104;8.074;2023-06-14T03:24:53;7.93;;;4.90;;
74707;SDS011;63360;50.104;8.074;2023-06-14T03:27:20;7.90;;;4.45;;
74707;SDS011;63360;50.104;8.074;2023-06-14T03:29:46;7.35;;;4.50;;
74707;SDS011;63360;50.104;8.074;2023-06-14T03:32:13;7.15;;;4.40;;
74707;SDS011;63360;50.104;8.074;2023-06-14T03:34:39;6.85;;;4.70;;
74707;SDS011;63360;50.104;8.074;2023-06-14T03:37:07;7.43;;;4.77;;
74707;SDS011;63360;50.104;8.074;2023-06-14T03:39:33;7.88;;;4.55;;
74707;SDS011;63360;50.104;8.074;2023-06-14T03:42:00;10.68;;;5.25;;
74707;SDS011;63360;50.104;8.074;2023-06-14T03:44:26;7.45;;;4.53;;
74707;SDS011;63360;50.104;8.074;2023-06-14T03:46:53;6.80;;;4.68;;
74707;SDS011;63360;50.104;8.074;2023-06-14T03:49:19;7.93;;;4.80;;
74707;SDS011;63360;50.104;8.074;2023-06-14T03:51:45;10.77;;;5.10;;
74707;SDS011;63360;50.104;8.074;2023-06-14T03:54:17;7.63;;;5.55;;
74707;SDS011;63360;50.104;8.074;2023-06-14T03:57:04;7.55;;;4.90;;
74707;SDS011;63360;50.104;8.074;2023-06-14T03:59:32;9.73;;;4.95;;
74707;SDS011;63360;50.104;8.074;2023-06-14T04:01:58;9.57;;;5.13;;
74707;SDS011;63360;50.104;8.074;2023-06-14T04:04:25;7.30;;;4.80;;
74707;SDS011;63360;50.104;8.074;2023-06-14T04:06:55;7.75;;;5.00;;
74707;SDS011;63360;50.104;8.074;2023-06-14T04:09:24;11.20;;;5.68;;
74707;SDS011;63360;50.104;8.074;2023-06-14T04:11:51;8.73;;;4.70;;
74707;SDS011;63360;50.104;8.074;2023-06-14T04:14:19;7.90;;;4.83;;
74707;SDS011;63360;50.104;8.074;2023-06-14T04:16:46;7.53;;;4.95;;
74707;SDS011;63360;50.104;8.074;2023-06-14T04:19:14;7.95;;;4.63;;
74707;SDS011;63360;50.104;8.074;2023-06-14T04:21:41;8.35;;;4.35;;
74707;SDS011;63360;50.104;8.074;2023-06-14T04:24:08;7.35;;;4.15;;
74707;SDS011;63360;50.104;8.074;2023-06-14T04:26:41;6.27;;;4.40;;
74707;SDS011;63360;50.104;8.074;2023-06-14T04:29:11;7.70;;;4.40;;
74707;SDS011;63360;50.104;8.074;2023-06-14T04:31:40;5.70;;;4.18;;
74707;SDS011;63360;50.104;8.074;2023-06-14T04:34:07;7.57;;;4.07;;
74707;SDS011;63360;50.104;8.074;2023-06-14T04:36:34;7.50;;;4.10;;
74707;SDS011;63360;50.104;8.074;2023-06-14T04:39:03;7.40;;;4.30;;
74707;SDS011;63360;50.104;8.074;2023-06-14T04:41:30;6.65;;;4.32;;
74707;SDS011;63360;50.104;8.074;2023-06-14T04:43:58;7.35;;;4.20;;
74707;SDS011;63360;50.104;8.074;2023-06-14T04:46:28;6.93;;;4.13;;
74707;SDS011;63360;50.104;8.074;2023-06-14T04:48:55;7.20;;;4.28;;
74707;SDS011;63360;50.104;8.074;2023-06-14T04:51:23;6.70;;;4.20;;
74707;SDS011;63360;50.104;8.074;2023-06-14T04:53:56;6.78;;;4.10;;
74707;SDS011;63360;50.104;8.074;2023-06-14T04:56:25;7.57;;;4.50;;
74707;SDS011;63360;50.104;8.074;2023-06-14T04:58:52;6.35;;;3.97;;
74707;SDS011;63360;50.104;8.074;2023-06-14T05:01:20;6.82;;;4.30;;
74707;SDS011;63360;50.104;8.074;2023-06-14T05:03:47;6.63;;;3.90;;
74707;SDS011;63360;50.104;8.074;2023-06-14T05:06:15;6.90;;;4.43;;
74707;SDS011;63360;50.104;8.074;2023-06-14T05:08:43;7.35;;;4.15;;
74707;SDS011;63360;50.104;8.074;2023-06-14T05:11:10;7.03;;;3.85;;
74707;SDS011;63360;50.104;8.074;2023-06-14T05:13:36;5.55;;;3.47;;
74707;SDS011;63360;50.104;8.074;2023-06-14T05:16:03;7.53;;;4.20;;
74707;SDS011;63360;50.104;8.074;2023-06-14T05:18:29;7.30;;;4.20;;
74707;SDS011;63360;50.104;8.074;2023-06-14T05:20:56;5.60;;;4.10;;
74707;SDS011;63360;50.104;8.074;2023-06-14T05:23:22;7.28;;;3.88;;
74707;SDS011;63360;50.104;8.074;2023-06-14T05:25:49;8.40;;;4.55;;
74707;SDS011;63360;50.104;8.074;2023-06-14T05:28:15;7.97;;;4.00;;
74707;SDS011;63360;50.104;8.074;2023-06-14T05:30:42;7.30;;;4.18;;
74707;SDS011;63360;50.104;8.074;2023-06-14T05:33:08;8.30;;;4.30;;
74707;SDS011;63360;50.104;8.074;2023-06-14T05:35:35;8.27;;;4.15;;
74707;SDS011;63360;50.104;8.074;2023-06-14T05:38:01;6.47;;;3.72;;
74707;SDS011;63360;50.104;8.074;2023-06-14T05:40:28;7.83;;;4.17;;
74707;SDS011;63360;50.104;8.074;2023-06-14T05:42:55;6.63;;;4.30;;
74707;SDS011;63360;50.104;8.074;2023-06-14T05:45:21;6.32;;;4.03;;
74707;SDS011;63360;50.104;8.074;2023-06-14T05:47:48;6.00;;;4.10;;
74707;SDS011;63360;50.104;8.074;2023-06-14T05:50:14;6.53;;;4.03;;
74707;SDS011;63360;50.104;8.074;2023-06-14T05:52:41;7.63;;;4.23;;
74707;SDS011;63360;50.104;8.074;2023-06-14T05:55:07;6.20;;;4.10;;
74707;SDS011;63360;50.104;8.074;2023-06-14T05:57:34;7.38;;;4.50;;
74707;SDS011;63360;50.104;8.074;2023-06-14T06:00:01;8.05;;;4.35;;
74707;SDS011;63360;50.104;8.074;2023-06-14T06:02:35;8.73;;;4.20;;
74707;SDS011;63360;50.104;8.074;2023-06-14T06:05:02;6.87;;;4.20;;
74707;SDS011;63360;50.104;8.074;2023-06-14T06:07:29;6.53;;;3.97;;
74707;SDS011;63360;50.104;8.074;2023-06-14T06:09:56;6.78;;;3.67;;
74707;SDS011;63360;50.104;8.074;2023-06-14T06:12:22;7.50;;;4.15;;
74707;SDS011;63360;50.104;8.074;2023-06-14T06:14:48;5.30;;;3.75;;
74707;SDS011;63360;50.104;8.074;2023-06-14T06:17:15;5.40;;;4.00;;
74707;SDS011;63360;50.104;8.074;2023-06-14T06:19:42;6.05;;;3.95;;
74707;SDS011;63360;50.104;8.074;2023-06-14T06:22:08;7.25;;;4.32;;
74707;SDS011;63360;50.104;8.074;2023-06-14T06:24:34;6.47;;;4.25;;
74707;SDS011;63360;50.104;8.074;2023-06-14T06:27:01;5.97;;;4.15;;
74707;SDS011;63360;50.104;8.074;2023-06-14T06:29:28;7.23;;;4.00;;
74707;SDS011;63360;50.104;8.074;2023-06-14T06:31:54;5.68;;;3.70;;
74707;SDS011;63360;50.104;8.074;2023-06-14T06:34:22;8.52;;;4.45;;
74707;SDS011;63360;50.104;8.074;2023-06-14T06:36:48;6.43;;;3.85;;
74707;SDS011;63360;50.104;8.074;2023-06-14T06:39:15;5.30;;;3.90;;
74707;SDS011;63360;50.104;8.074;2023-06-14T06:41:41;6.97;;;4.00;;
74707;SDS011;63360;50.104;8.074;2023-06-14T06:44:08;7.10;;;3.80;;
74707;SDS011;63360;50.104;8.074;2023-06-14T06:46:36;6.78;;;3.75;;
74707;SDS011;63360;50.104;8.074;2023-06-14T06:49:07;7.15;;;3.92;;
74707;SDS011;63360;50.104;8.074;2023-06-14T06:51:34;6.93;;;3.70;;
74707;SDS011;63360;50.104;8.074;2023-06-14T06:54:01;5.33;;;3.70;;
74707;SDS011;63360;50.104;8.074;2023-06-14T06:56:28;6.47;;;3.42;;
74707;SDS011;63360;50.104;8.074;2023-06-14T06:58:55;4.95;;;2.95;;
74707;SDS011;63360;50.104;8.074;2023-06-14T07:01:21;6.95;;;2.92;;
74707;SDS011;63360;50.104;8.074;2023-06-14T07:03:48;5.05;;;3.03;;
74707;SDS011;63360;50.104;8.074;2023-06-14T07:06:14;6.90;;;3.00;;
74707;SDS011;63360;50.104;8.074;2023-06-14T07:08:44;3.90;;;2.70;;
74707;SDS011;63360;50.104;8.074;2023-06-14T07:11:11;4.07;;;2.85;;
74707;SDS011;63360;50.104;8.074;2023-06-14T07:13:38;6.13;;;2.88;;
74707;SDS011;63360;50.104;8.074;2023-06-14T07:16:04;3.38;;;2.47;;
74707;SDS011;63360;50.104;8.074;2023-06-14T07:18:31;4.47;;;2.50;;
74707;SDS011;63360;50.104;8.074;2023-06-14T07:20:58;4.75;;;2.67;;
74707;SDS011;63360;50.104;8.074;2023-06-14T07:23:24;3.70;;;2.40;;
74707;SDS011;63360;50.104;8.074;2023-06-14T07:25:51;3.95;;;2.10;;
74707;SDS011;63360;50.104;8.074;2023-06-14T07:28:18;2.15;;;1.73;;
74707;SDS011;63360;50.104;8.074;2023-06-14T07:30:44;4.40;;;1.83;;
74707;SDS011;63360;50.104;8.074;2023-06-14T07:33:11;3.13;;;1.70;;
74707;SDS011;63360;50.104;8.074;2023-06-14T07:35:38;3.22;;;1.70;;
74707;SDS011;63360;50.104;8.074;2023-06-14T07:38:07;2.35;;;1.50;;
74707;SDS011;63360;50.104;8.074;2023-06-14T07:40:34;4.07;;;1.60;;
74707;SDS011;63360;50.104;8.074;2023-06-14T07:43:01;3.70;;;1.47;;
74707;SDS011;63360;50.104;8.074;2023-06-14T07:45:28;3.33;;;1.60;;
74707;SDS011;63360;50.104;8.074;2023-06-14T07:47:55;3.70;;;1.50;;
74707;SDS011;63360;50.104;8.074;2023-06-14T07:50:21;2.50;;;1.60;;
74707;SDS011;63360;50.104;8.074;2023-06-14T07:52:48;2.65;;;1.40;;
74707;SDS011;63360;50.104;8.074;2023-06-14T07:55:15;2.40;;;1.63;;
74707;SDS011;63360;50.104;8.074;2023-06-14T07:57:42;3.50;;;2.10;;
74707;SDS011;63360;50.104;8.074;2023-06-14T08:00:09;3.33;;;1.85;;
74707;SDS011;63360;50.104;8.074;2023-06-14T08:02:37;3.92;;;2.05;;
74707;SDS011;63360;50.104;8.074;2023-06-14T08:05:04;3.45;;;1.65;;
74707;SDS011;63360;50.104;8.074;2023-06-14T08:07:31;4.30;;;1.83;;
74707;SDS011;63360;50.104;8.074;2023-06-14T08:09:57;2.58;;;1.63;;
74707;SDS011;63360;50.104;8.074;2023-06-14T08:12:23;2.80;;;1.77;;
74707;SDS011;63360;50.104;8.074;2023-06-14T08:14:50;3.35;;;1.80;;
74707;SDS011;63360;50.104;8.074;2023-06-14T08:17:37;4.85;;;1.90;;
74707;SDS011;63360;50.104;8.074;2023-06-14T08:20:04;2.20;;;1.40;;
74707;SDS011;63360;50.104;8.074;2023-06-14T08:22:31;4.40;;;1.70;;
74707;SDS011;63360;50.104;8.074;2023-06-14T08:25:00;2.67;;;1.40;;
74707;SDS011;63360;50.104;8.074;2023-06-14T08:27:27;2.97;;;1.60;;
74707;SDS011;63360;50.104;8.074;2023-06-14T08:29:56;3.53;;;1.40;;
74707;SDS011;63360;50.104;8.074;2023-06-14T08:32:22;3.27;;;1.60;;
74707;SDS011;63360;50.104;8.074;2023-06-14T08:34:49;3.83;;;1.73;;
74707;SDS011;63360;50.104;8.074;2023-06-14T08:37:30;5.22;;;1.77;;
74707;SDS011;63360;50.104;8.074;2023-06-14T08:39:56;2.88;;;1.98;;
74707;SDS011;63360;50.104;8.074;2023-06-14T08:42:23;3.00;;;1.90;;
74707;SDS011;63360;50.104;8.074;2023-06-14T08:44:57;3.63;;;2.00;;
74707;SDS011;63360;50.104;8.074;2023-06-14T08:47:24;4.15;;;1.88;;
74707;SDS011;63360;50.104;8.074;2023-06-14T08:49:52;3.72;;;2.13;;
74707;SDS011;63360;50.104;8.074;2023-06-14T08:52:23;3.67;;;1.90;;
74707;SDS011;63360;50.104;8.074;2023-06-14T08:54:56;3.97;;;2.40;;
74707;SDS011;63360;50.104;8.074;2023-06-14T08:57:25;4.23;;;2.10;;
74707;SDS011;63360;50.104;8.074;2023-06-14T08:59:56;3.58;;;2.15;;
74707;SDS011;63360;50.104;8.074;2023-06-14T09:02:23;4.35;;;2.10;;
74707;SDS011;63360;50.104;8.074;2023-06-14T09:04:51;2.80;;;2.03;;
74707;SDS011;63360;50.104;8.074;2023-06-14T09:07:18;3.28;;;2.13;;
74707;SDS011;63360;50.104;8.074;2023-06-14T09:09:44;5.10;;;2.27;;
74707;SDS011;63360;50.104;8.074;2023-06-14T09:12:31;3.03;;;1.83;;
74707;SDS011;63360;50.104;8.074;2023-06-14T09:14:57;5.38;;;2.20;;
74707;SDS011;63360;50.104;8.074;2023-06-14T09:17:24;4.75;;;2.10;;
74707;SDS011;63360;50.104;8.074;2023-06-14T09:19:50;3.58;;;1.73;;
74707;SDS011;63360;50.104;8.074;2023-06-14T09:22:17;3.80;;;1.60;;
74707;SDS011;63360;50.104;8.074;2023-06-14T09:24:43;2.72;;;1.50;;
74707;SDS011;63360;50.104;8.074;2023-06-14T09:27:14;2.42;;;1.50;;
74707;SDS011;63360;50.104;8.074;2023-06-14T09:29:41;4.63;;;1.58;;
74707;SDS011;63360;50.104;8.074;2023-06-14T09:32:08;3.40;;;1.35;;
74707;SDS011;63360;50.104;8.074;2023-06-14T09:34:35;2.20;;;1.50;;
74707;SDS011;63360;50.104;8.074;2023-06-14T09:37:02;2.22;;;1.40;;
74707;SDS011;63360;50.104;8.074;2023-06-14T09:39:28;2.42;;;1.50;;
74707;SDS011;63360;50.104;8.074;2023-06-14T09:41:55;2.45;;;1.45;;
74707;SDS011;63360;50.104;8.074;2023-06-14T09:44:21;2.75;;;1.50;;
74707;SDS011;63360;50.104;8.074;2023-06-14T09:46:51;3.30;;;1.20;;
74707;SDS011;63360;50.104;8.074;2023-06-14T09:49:18;3.58;;;1.50;;
74707;SDS011;63360;50.104;8.074;2023-06-14T09:51:45;2.53;;;1.70;;
74707;SDS011;63360;50.104;8.074;2023-06-14T09:54:18;3.28;;;1.70;;
74707;SDS011;63360;50.104;8.074;2023-06-14T09:56:48;3.28;;;1.50;;
74707;SDS011;63360;50.104;8.074;2023-06-14T09:59:21;2.17;;;1.60;;
74707;SDS011;63360;50.104;8.074;2023-06-14T10:01:55;1.80;;;1.20;;
74707;SDS011;63360;50.104;8.074;2023-06-14T10:04:25;4.53;;;1.52;;
74707;SDS011;63360;50.104;8.074;2023-06-14T10:06:55;2.10;;;1.45;;
74707;SDS011;63360;50.104;8.074;2023-06-14T10:09:21;5.75;;;1.60;;
74707;SDS011;63360;50.104;8.074;2023-06-14T10:11:48;2.60;;;1.63;;
74707;SDS011;63360;50.104;8.074;2023-06-14T10:14:15;2.63;;;1.60;;
74707;SDS011;63360;50.104;8.074;2023-06-14T10:16:49;3.55;;;1.52;;
74707;SDS011;63360;50.104;8.074;2023-06-14T10:19:25;4.80;;;1.70;;
74707;SDS011;63360;50.104;8.074;2023-06-14T10:22:01;4.40;;;1.90;;
74707;SDS011;63360;50.104;8.074;2023-06-14T10:24:32;3.03;;;2.10;;
74707;SDS011;63360;50.104;8.074;2023-06-14T10:27:06;3.78;;;1.90;;
74707;SDS011;63360;50.104;8.074;2023-06-14T10:32:24;2.90;;;2.08;;
74707;SDS011;63360;50.104;8.074;2023-06-14T10:34:55;2.95;;;1.95;;
74707;SDS011;63360;50.104;8.074;2023-06-14T10:37:23;4.70;;;1.70;;
74707;SDS011;63360;50.104;8.074;2023-06-14T10:39:53;2.35;;;1.67;;
74707;SDS011;63360;50.104;8.074;2023-06-14T10:42:20;3.05;;;1.63;;
74707;SDS011;63360;50.104;8.074;2023-06-14T10:44:52;2.38;;;1.90;;
74707;SDS011;63360;50.104;8.074;2023-06-14T10:50:07;3.70;;;1.70;;
74707;SDS011;63360;50.104;8.074;2023-06-14T10:52:38;2.90;;;1.80;;
74707;SDS011;63360;50.104;8.074;2023-06-14T10:55:12;3.63;;;2.15;;
74707;SDS011;63360;50.104;8.074;2023-06-14T10:57:45;3.30;;;2.00;;
74707;SDS011;63360;50.104;8.074;2023-06-14T11:00:19;3.83;;;1.73;;
74707;SDS011;63360;50.104;8.074;2023-06-14T11:02:58;3.07;;;1.70;;
74707;SDS011;63360;50.104;8.074;2023-06-14T11:05:52;3.42;;;1.80;;
74707;SDS011;63360;50.104;8.074;2023-06-14T11:11:14;2.50;;;1.75;;
74707;SDS011;63360;50.104;8.074;2023-06-14T11:13:44;3.15;;;1.50;;
74707;SDS011;63360;50.104;8.074;2023-06-14T11:16:15;2.47;;;1.30;;
74707;SDS011;63360;50.104;8.074;2023-06-14T11:18:43;3.63;;;1.50;;
74707;SDS011;63360;50.104;8.074;2023-06-14T11:21:11;2.58;;;1.50;;
74707;SDS011;63360;50.104;8.074;2023-06-14T11:23:41;4.18;;;1.90;;
74707;SDS011;63360;50.104;8.074;2023-06-14T11:26:07;2.70;;;1.70;;
74707;SDS011;63360;50.104;8.074;2023-06-14T11:28:38;2.27;;;1.70;;
74707;SDS011;63360;50.104;8.074;2023-06-14T11:31:05;3.40;;;1.80;;
74707;SDS011;63360;50.104;8.074;2023-06-14T11:33:31;6.20;;;2.28;;
74707;SDS011;63360;50.104;8.074;2023-06-14T11:35:58;2.58;;;1.70;;
74707;SDS011;63360;50.104;8.074;2023-06-14T11:38:25;3.00;;;1.70;;
74707;SDS011;63360;50.104;8.074;2023-06-14T11:40:52;2.20;;;1.83;;
74707;SDS011;63360;50.104;8.074;2023-06-14T11:43:18;3.45;;;1.80;;
74707;SDS011;63360;50.104;8.074;2023-06-14T11:45:48;3.35;;;1.73;;
74707;SDS011;63360;50.104;8.074;2023-06-14T11:48:36;4.55;;;1.50;;
74707;SDS011;63360;50.104;8.074;2023-06-14T11:51:05;2.25;;;1.30;;
74707;SDS011;63360;50.104;8.074;2023-06-14T11:53:31;2.47;;;1.60;;
74707;SDS011;63360;50.104;8.074;2023-06-14T11:55:58;3.65;;;1.80;;
74707;SDS011;63360;50.104;8.074;2023-06-14T11:58:26;3.45;;;1.73;;
74707;SDS011;63360;50.104;8.074;2023-06-14T12:00:53;3.92;;;1.90;;
74707;SDS011;63360;50.104;8.074;2023-06-14T12:03:22;2.92;;;1.70;;
74707;SDS011;63360;50.104;8.074;2023-06-14T12:06:01;2.60;;;1.57;;
74707;SDS011;63360;50.104;8.074;2023-06-14T12:08:37;5.03;;;1.90;;
74707;SDS011;63360;50.104;8.074;2023-06-14T12:11:10;2.63;;;1.70;;
74707;SDS011;63360;50.104;8.074;2023-06-14T12:13:38;2.90;;;2.00;;
74707;SDS011;63360;50.104;8.074;2023-06-14T12:16:07;3.33;;;1.83;;
74707;SDS011;63360;50.104;8.074;2023-06-14T12:18:35;3.43;;;1.97;;
74707;SDS011;63360;50.104;8.074;2023-06-14T12:21:07;2.75;;;1.90;;
74707;SDS011;63360;50.104;8.074;2023-06-14T12:23:47;2.70;;;2.20;;
74707;SDS011;63360;50.104;8.074;2023-06-14T12:28:45;3.63;;;2.35;;
74707;SDS011;63360;50.104;8.074;2023-06-14T12:31:12;3.20;;;1.87;;
74707;SDS011;63360;50.104;8.074;2023-06-14T12:33:41;3.03;;;2.00;;
74707;SDS011;63360;50.104;8.074;2023-06-14T12:36:08;3.03;;;2.00;;
74707;SDS011;63360;50.104;8.074;2023-06-14T12:38:36;3.33;;;2.20;;
74707;SDS011;63360;50.104;8.074;2023-06-14T12:41:03;3.03;;;2.10;;
74707;SDS011;63360;50.104;8.074;2023-06-14T12:43:30;2.47;;;1.90;;
74707;SDS011;63360;50.104;8.074;2023-06-14T12:45:56;3.08;;;2.00;;
74707;SDS011;63360;50.104;8.074;2023-06-14T12:48:23;2.72;;;1.88;;
74707;SDS011;63360;50.104;8.074;2023-06-14T12:50:49;2.80;;;2.20;;
74707;SDS011;63360;50.104;8.074;2023-06-14T12:53:16;5.63;;;2.38;;
74707;SDS011;63360;50.104;8.074;2023-06-14T12:55:43;2.90;;;2.07;;
74707;SDS011;63360;50.104;8.074;2023-06-14T12:58:10;3.13;;;2.13;;
74707;SDS011;63360;50.104;8.074;2023-06-14T13:00:39;3.97;;;1.98;;
74707;SDS011;63360;50.104;8.074;2023-06-14T13:03:06;3.65;;;2.25;;
74707;SDS011;63360;50.104;8.074;2023-06-14T13:05:32;3.13;;;2.47;;
74707;SDS011;63360;50.104;8.074;2023-06-14T13:07:59;3.30;;;2.33;;
74707;SDS011;63360;50.104;8.074;2023-06-14T13:10:26;3.63;;;2.30;;
74707;SDS011;63360;50.104;8.074;2023-06-14T13:12:54;3.53;;;2.30;;
74707;SDS011;63360;50.104;8.074;2023-06-14T13:15:20;4.05;;;2.30;;
74707;SDS011;63360;50.104;8.074;2023-06-14T13:17:47;3.30;;;2.28;;
74707;SDS011;63360;50.104;8.074;2023-06-14T13:20:15;3.13;;;2.03;;
74707;SDS011;63360;50.104;8.074;2023-06-14T13:22:46;3.35;;;2.05;;
74707;SDS011;63360;50.104;8.074;2023-06-14T13:25:12;4.97;;;2.25;;
74707;SDS011;63360;50.104;8.074;2023-06-14T13:27:39;3.97;;;2.20;;
74707;SDS011;63360;50.104;8.074;2023-06-14T13:30:05;8.13;;;2.28;;
74707;SDS011;63360;50.104;8.074;2023-06-14T13:32:32;3.67;;;2.20;;
74707;SDS011;63360;50.104;8.074;2023-06-14T13:34:59;4.88;;;2.10;;
74707;SDS011;63360;50.104;8.074;2023-06-14T13:37:26;3.00;;;2.20;;
74707;SDS011;63360;50.104;8.074;2023-06-14T13:39:52;3.80;;;2.05;;
74707;SDS011;63360;50.104;8.074;2023-06-14T13:42:19;2.78;;;1.90;;
74707;SDS011;63360;50.104;8.074;2023-06-14T13:44:45;4.83;;;2.27;;
74707;SDS011;63360;50.104;8.074;2023-06-14T13:47:11;4.05;;;2.25;;
74707;SDS011;63360;50.104;8.074;2023-06-14T13:49:38;4.55;;;2.30;;
74707;SDS011;63360;50.104;8.074;2023-06-14T13:52:04;3.08;;;2.00;;
74707;SDS011;63360;50.104;8.074;2023-06-14T13:54:31;3.28;;;2.00;;
74707;SDS011;63360;50.104;8.074;2023-06-14T13:56:58;3.20;;;1.90;;
74707;SDS011;63360;50.104;8.074;2023-06-14T13:59:25;5.60;;;2.00;;
74707;SDS011;63360;50.104;8.074;2023-06-14T14:01:51;3.00;;;2.20;;
74707;SDS011;63360;50.104;8.074;2023-06-14T14:04:18;4.00;;;2.22;;
74707;SDS011;63360;50.104;8.074;2023-06-14T14:06:44;3.00;;;2.00;;
74707;SDS011;63360;50.104;8.074;2023-06-14T14:09:14;3.67;;;2.27;;
74707;SDS011;63360;50.104;8.074;2023-06-14T14:11:41;3.75;;;2.00;;
74707;SDS011;63360;50.104;8.074;2023-06-14T14:14:08;3.92;;;2.20;;
74707;SDS011;63360;50.104;8.074;2023-06-14T14:16:36;3.65;;;2.15;;
74707;SDS011;63360;50.104;8.074;2023-06-14T14:19:03;3.65;;;2.13;;
74707;SDS011;63360;50.104;8.074;2023-06-14T14:21:30;3.03;;;2.23;;
74707;SDS011;63360;50.104;8.074;2023-06-14T14:23:56;3.83;;;2.22;;
74707;SDS011;63360;50.104;8.074;2023-06-14T14:26:23;3.00;;;2.40;;
74707;SDS011;63360;50.104;8.074;2023-06-14T14:28:51;3.65;;;2.20;;
74707;SDS011;63360;50.104;8.074;2023-06-14T14:31:18;3.53;;;2.40;;
74707;SDS011;63360;50.104;8.074;2023-06-14T14:33:44;2.87;;;2.23;;
74707;SDS011;63360;50.104;8.074;2023-06-14T14:36:11;3.53;;;2.60;;
74707;SDS011;63360;50.104;8.074;2023-06-14T14:38:38;6.15;;;2.75;;
74707;SDS011;63360;50.104;8.074;2023-06-14T14:41:04;3.20;;;2.17;;
74707;SDS011;63360;50.104;8.074;2023-06-14T14:43:31;6.15;;;2.30;;
74707;SDS011;63360;50.104;8.074;2023-06-14T14:45:58;3.67;;;2.40;;
74707;SDS011;63360;50.104;8.074;2023-06-14T14:48:25;5.20;;;2.55;;
74707;SDS011;63360;50.104;8.074;2023-06-14T14:50:51;3.78;;;2.40;;
74707;SDS011;63360;50.104;8.074;2023-06-14T14:53:17;3.20;;;2.30;;
74707;SDS011;63360;50.104;8.074;2023-06-14T14:55:44;4.18;;;2.30;;
74707;SDS011;63360;50.104;8.074;2023-06-14T14:58:12;4.00;;;2.70;;
74707;SDS011;63360;50.104;8.074;2023-06-14T15:00:39;3.78;;;2.53;;
74707;SDS011;63360;50.104;8.074;2023-06-14T15:03:05;3.85;;;2.40;;
74707;SDS011;63360;50.104;8.074;2023-06-14T15:05:32;3.70;;;2.72;;
74707;SDS011;63360;50.104;8.074;2023-06-14T15:07:58;3.45;;;2.50;;
74707;SDS011;63360;50.104;8.074;2023-06-14T15:10:25;5.90;;;2.70;;
74707;SDS011;63360;50.104;8.074;2023-06-14T15:12:51;4.63;;;2.72;;